Boca Raton, FL (33433)

6:53 PM EDT on September 30, 2014 (GMT -0400)
Terra Tranquila | Change Station
CLOSE
Current Station
Personal Weather Station
Location: Boca Raton, FL
Elevation: 9 m
Nearby Weather Stations

Elev 9 m 26.34 °N, 80.15 °W | Updated 8 seconds ago

Clear
Clear
29.2 °C
Feels Like 33 °C
N
0.0
Wind Variable Wind from East
Gusts 0.0 km/h

Today
High -- | Low -- °C
--% Chance of Precip.
Yesterday
High -- | Low -- °C
Precip. -- mm
7:12 AM 7:08 PM
Waxing Crescent, 41% visible
Pressure 1010 hPa
Visibility 16.1 kilometers
Clouds Clear
Heat Index 33 °C
Dew Point 23 °C
Humidity 71%
Rainfall 13 mm
Snow Depth Not available.
UV 1 out of 12
Pollen 3.90 out of 12
Ozone Good
PM2.5 Good
Flu Activity Not available.
METAR KPMP 302153Z 24011KT 10SM CLR 30/24 A2982 RMK AO2 LTG DSNT ALQDS SLP099 T03000239

More Conditions Fewer Conditions

Pressure 1010 hPa
Visibility 16.1 kilometers
Clouds Clear
Heat Index 33 °C
Dew Point 23 °C
Humidity 71%
Rainfall 13 mm
Snow Depth Not available.
UV 1 out of 12
Pollen 3.90 out of 12
Ozone Good
PM2.5 Good
Flu Activity Not available.
METAR KPMP 302153Z 24011KT 10SM CLR 30/24 A2982 RMK AO2 LTG DSNT ALQDS SLP099 T03000239

More Conditions Fewer Conditions

10-Day Weather Forecast

Almanac

Astronomy

Sep. 30, 2014 Rise Set
Actual Time 7:12 AM EDT 7:08 PM EDT
Civil Twilight 6:49 AM EDT 7:31 PM EDT
Nautical Twilight 6:22 AM EDT 7:57 PM EDT
Astronomical Twilight 5:55 AM EDT 8:24 PM EDT
Moon 12:54 PM EDT No Moon Set
Length of Visible Light 12h 41m
Length of Day
11h 55m
Tomorrow will be 1m 33s shorter.
Waxing Crescent, 41% of the Moon is Illuminated
Today
Waxing Crescent
Oct 1
First Quarter
Oct 8
Full
Oct 15
Last Quarter
Oct 23
New

Today's Extremes

State Highs State Lows

Community

WunderPhotos

Upload Photos

1,757,767 photos uploaded!

Nearby

Air Quality

  Air Quality AQ Index Pollutant
Yesterday Good
OZONE
Yesterday Good
PM2.5
Current Good
PM2.5
Current Good
OZONE
Tuesday Good
OZONE
Tuesday Good
PM2.5
Wednesday Good
OZONE
Wednesday Good
PM2.5
Thursday Good
OZONE
Thursday Good
PM2.5

Snow Depth

Station Depth Elevation
No new snow has been reported.

Earthquake Activity

City Distance Mag. Time & Date
No recent earthquake activity has been reported nearby.
Minimum magnitude displayed is 2.5.

Coastal Water Temperatures

Place Temperature
Lake Worth, FL 29.4 °C
Virginia Key, FL 29.4 °C

Nearby Weather Stations